sensor_id;sensor_type;location;lat;lon;timestamp;P1;durP1;ratioP1;P2;durP2;ratioP2
42006;SDS011;27696;42.704;23.304;2023-12-20T00:00:56;163.68;;;103.18;;
42006;SDS011;27696;42.704;23.304;2023-12-20T00:03:21;146.50;;;93.68;;
42006;SDS011;27696;42.704;23.304;2023-12-20T00:05:47;150.20;;;93.25;;
42006;SDS011;27696;42.704;23.304;2023-12-20T00:08:12;157.15;;;101.50;;
42006;SDS011;27696;42.704;23.304;2023-12-20T00:13:33;163.43;;;104.10;;
42006;SDS011;27696;42.704;23.304;2023-12-20T00:15:58;155.93;;;100.45;;
42006;SDS011;27696;42.704;23.304;2023-12-20T00:18:23;166.23;;;104.75;;
42006;SDS011;27696;42.704;23.304;2023-12-20T00:20:49;169.57;;;103.00;;
42006;SDS011;27696;42.704;23.304;2023-12-20T00:23:14;167.68;;;102.97;;
42006;SDS011;27696;42.704;23.304;2023-12-20T00:25:40;169.52;;;106.88;;
42006;SDS011;27696;42.704;23.304;2023-12-20T00:28:05;165.45;;;103.03;;
42006;SDS011;27696;42.704;23.304;2023-12-20T00:30:31;172.10;;;106.22;;
42006;SDS011;27696;42.704;23.304;2023-12-20T00:32:57;173.68;;;105.65;;
42006;SDS011;27696;42.704;23.304;2023-12-20T00:35:22;174.23;;;109.22;;
42006;SDS011;27696;42.704;23.304;2023-12-20T00:37:48;174.48;;;108.82;;
42006;SDS011;27696;42.704;23.304;2023-12-20T00:40:13;171.05;;;105.55;;
42006;SDS011;27696;42.704;23.304;2023-12-20T00:42:39;163.80;;;104.15;;
42006;SDS011;27696;42.704;23.304;2023-12-20T00:45:04;157.85;;;104.22;;
42006;SDS011;27696;42.704;23.304;2023-12-20T00:47:30;158.75;;;102.45;;
42006;SDS011;27696;42.704;23.304;2023-12-20T00:49:59;167.98;;;104.10;;
42006;SDS011;27696;42.704;23.304;2023-12-20T00:52:25;167.15;;;106.75;;
42006;SDS011;27696;42.704;23.304;2023-12-20T00:54:50;157.50;;;101.22;;
42006;SDS011;27696;42.704;23.304;2023-12-20T00:57:17;168.88;;;102.05;;
42006;SDS011;27696;42.704;23.304;2023-12-20T00:59:42;158.02;;;100.40;;
42006;SDS011;27696;42.704;23.304;2023-12-20T01:02:08;165.38;;;102.70;;
42006;SDS011;27696;42.704;23.304;2023-12-20T01:04:35;160.30;;;103.28;;
42006;SDS011;27696;42.704;23.304;2023-12-20T01:07:00;155.23;;;98.68;;
42006;SDS011;27696;42.704;23.304;2023-12-20T01:09:25;157.60;;;99.72;;
42006;SDS011;27696;42.704;23.304;2023-12-20T01:11:54;152.15;;;95.07;;
42006;SDS011;27696;42.704;23.304;2023-12-20T01:14:19;157.63;;;97.38;;
42006;SDS011;27696;42.704;23.304;2023-12-20T01:16:45;151.95;;;95.00;;
42006;SDS011;27696;42.704;23.304;2023-12-20T01:19:10;144.32;;;90.72;;
42006;SDS011;27696;42.704;23.304;2023-12-20T01:21:36;139.25;;;89.93;;
42006;SDS011;27696;42.704;23.304;2023-12-20T01:24:01;151.52;;;93.80;;
42006;SDS011;27696;42.704;23.304;2023-12-20T01:26:27;148.27;;;92.05;;
42006;SDS011;27696;42.704;23.304;2023-12-20T01:28:53;146.40;;;91.03;;
42006;SDS011;27696;42.704;23.304;2023-12-20T01:31:18;146.32;;;93.03;;
42006;SDS011;27696;42.704;23.304;2023-12-20T01:33:44;154.68;;;94.47;;
42006;SDS011;27696;42.704;23.304;2023-12-20T01:36:09;156.30;;;94.53;;
42006;SDS011;27696;42.704;23.304;2023-12-20T01:38:36;155.68;;;97.35;;
42006;SDS011;27696;42.704;23.304;2023-12-20T01:41:02;156.20;;;94.40;;
42006;SDS011;27696;42.704;23.304;2023-12-20T01:43:27;152.38;;;95.60;;
42006;SDS011;27696;42.704;23.304;2023-12-20T01:45:53;156.77;;;95.47;;
42006;SDS011;27696;42.704;23.304;2023-12-20T01:48:21;150.73;;;93.38;;
42006;SDS011;27696;42.704;23.304;2023-12-20T01:50:46;150.02;;;92.43;;
42006;SDS011;27696;42.704;23.304;2023-12-20T01:53:12;149.80;;;91.82;;
42006;SDS011;27696;42.704;23.304;2023-12-20T01:55:39;160.25;;;94.57;;
42006;SDS011;27696;42.704;23.304;2023-12-20T01:58:06;156.10;;;93.03;;
42006;SDS011;27696;42.704;23.304;2023-12-20T02:00:35;151.40;;;92.18;;
42006;SDS011;27696;42.704;23.304;2023-12-20T02:03:02;147.23;;;90.95;;
42006;SDS011;27696;42.704;23.304;2023-12-20T02:05:31;150.50;;;89.18;;
42006;SDS011;27696;42.704;23.304;2023-12-20T02:07:57;142.30;;;87.18;;
42006;SDS011;27696;42.704;23.304;2023-12-20T02:10:23;155.25;;;90.38;;
42006;SDS011;27696;42.704;23.304;2023-12-20T02:12:49;143.75;;;89.28;;
42006;SDS011;27696;42.704;23.304;2023-12-20T02:15:15;142.00;;;85.45;;
42006;SDS011;27696;42.704;23.304;2023-12-20T02:17:40;141.18;;;82.40;;
42006;SDS011;27696;42.704;23.304;2023-12-20T02:20:06;133.50;;;81.72;;
42006;SDS011;27696;42.704;23.304;2023-12-20T02:22:32;142.13;;;83.35;;
42006;SDS011;27696;42.704;23.304;2023-12-20T02:24:57;134.50;;;79.47;;
42006;SDS011;27696;42.704;23.304;2023-12-20T02:27:23;135.98;;;76.50;;
42006;SDS011;27696;42.704;23.304;2023-12-20T02:29:49;115.65;;;65.07;;
42006;SDS011;27696;42.704;23.304;2023-12-20T02:32:15;111.63;;;64.65;;
42006;SDS011;27696;42.704;23.304;2023-12-20T02:34:42;120.15;;;64.30;;
42006;SDS011;27696;42.704;23.304;2023-12-20T02:37:07;120.85;;;64.05;;
42006;SDS011;27696;42.704;23.304;2023-12-20T02:39:32;120.60;;;59.95;;
42006;SDS011;27696;42.704;23.304;2023-12-20T02:41:58;124.00;;;56.88;;
42006;SDS011;27696;42.704;23.304;2023-12-20T02:44:24;145.30;;;63.95;;
42006;SDS011;27696;42.704;23.304;2023-12-20T02:46:49;124.65;;;58.85;;
42006;SDS011;27696;42.704;23.304;2023-12-20T02:49:15;104.78;;;49.38;;
42006;SDS011;27696;42.704;23.304;2023-12-20T02:51:40;117.95;;;50.38;;
42006;SDS011;27696;42.704;23.304;2023-12-20T02:54:06;128.27;;;54.78;;
42006;SDS011;27696;42.704;23.304;2023-12-20T02:56:32;107.63;;;52.63;;
42006;SDS011;27696;42.704;23.304;2023-12-20T02:58:58;113.00;;;52.90;;
42006;SDS011;27696;42.704;23.304;2023-12-20T03:01:23;120.47;;;54.75;;
42006;SDS011;27696;42.704;23.304;2023-12-20T03:03:49;106.07;;;54.20;;
42006;SDS011;27696;42.704;23.304;2023-12-20T03:06:18;145.95;;;70.65;;
42006;SDS011;27696;42.704;23.304;2023-12-20T03:08:44;165.68;;;70.03;;
42006;SDS011;27696;42.704;23.304;2023-12-20T03:11:10;140.73;;;64.68;;
42006;SDS011;27696;42.704;23.304;2023-12-20T03:13:36;143.85;;;66.88;;
42006;SDS011;27696;42.704;23.304;2023-12-20T03:16:07;169.48;;;71.32;;
42006;SDS011;27696;42.704;23.304;2023-12-20T03:18:33;132.98;;;65.25;;
42006;SDS011;27696;42.704;23.304;2023-12-20T03:20:59;130.88;;;60.38;;
42006;SDS011;27696;42.704;23.304;2023-12-20T03:23:24;119.03;;;57.75;;
42006;SDS011;27696;42.704;23.304;2023-12-20T03:25:51;121.10;;;57.72;;
42006;SDS011;27696;42.704;23.304;2023-12-20T03:28:16;128.40;;;58.40;;
42006;SDS011;27696;42.704;23.304;2023-12-20T03:30:42;113.13;;;56.45;;
42006;SDS011;27696;42.704;23.304;2023-12-20T03:33:07;135.73;;;64.03;;
42006;SDS011;27696;42.704;23.304;2023-12-20T03:35:33;134.30;;;63.78;;
42006;SDS011;27696;42.704;23.304;2023-12-20T03:37:58;119.32;;;58.47;;
42006;SDS011;27696;42.704;23.304;2023-12-20T03:40:25;128.13;;;62.95;;
42006;SDS011;27696;42.704;23.304;2023-12-20T03:42:51;131.23;;;64.93;;
42006;SDS011;27696;42.704;23.304;2023-12-20T03:45:16;138.27;;;63.25;;
42006;SDS011;27696;42.704;23.304;2023-12-20T03:47:42;159.55;;;68.38;;
42006;SDS011;27696;42.704;23.304;2023-12-20T03:50:07;148.88;;;68.05;;
42006;SDS011;27696;42.704;23.304;2023-12-20T03:52:33;162.43;;;67.47;;
42006;SDS011;27696;42.704;23.304;2023-12-20T03:54:58;128.32;;;64.63;;
42006;SDS011;27696;42.704;23.304;2023-12-20T03:57:24;130.50;;;63.80;;
42006;SDS011;27696;42.704;23.304;2023-12-20T03:59:49;148.48;;;66.38;;
42006;SDS011;27696;42.704;23.304;2023-12-20T04:02:15;145.02;;;65.40;;
42006;SDS011;27696;42.704;23.304;2023-12-20T04:04:40;127.53;;;62.65;;
42006;SDS011;27696;42.704;23.304;2023-12-20T04:07:07;138.40;;;63.83;;
42006;SDS011;27696;42.704;23.304;2023-12-20T04:09:32;141.40;;;61.45;;
42006;SDS011;27696;42.704;23.304;2023-12-20T04:11:58;144.43;;;61.97;;
42006;SDS011;27696;42.704;23.304;2023-12-20T04:14:23;129.32;;;63.03;;
42006;SDS011;27696;42.704;23.304;2023-12-20T04:16:50;117.93;;;59.92;;
42006;SDS011;27696;42.704;23.304;2023-12-20T04:19:15;121.57;;;57.08;;
42006;SDS011;27696;42.704;23.304;2023-12-20T04:21:41;142.90;;;61.78;;
42006;SDS011;27696;42.704;23.304;2023-12-20T04:24:06;125.97;;;61.90;;
42006;SDS011;27696;42.704;23.304;2023-12-20T04:26:32;129.93;;;64.47;;
42006;SDS011;27696;42.704;23.304;2023-12-20T04:28:57;141.68;;;67.00;;
42006;SDS011;27696;42.704;23.304;2023-12-20T04:31:23;128.65;;;62.17;;
42006;SDS011;27696;42.704;23.304;2023-12-20T04:33:48;131.18;;;62.47;;
42006;SDS011;27696;42.704;23.304;2023-12-20T04:36:14;123.65;;;63.17;;
42006;SDS011;27696;42.704;23.304;2023-12-20T04:38:39;155.73;;;66.38;;
42006;SDS011;27696;42.704;23.304;2023-12-20T04:41:05;157.70;;;66.78;;
42006;SDS011;27696;42.704;23.304;2023-12-20T04:43:30;120.25;;;62.20;;
42006;SDS011;27696;42.704;23.304;2023-12-20T04:45:56;169.52;;;65.35;;
42006;SDS011;27696;42.704;23.304;2023-12-20T04:48:21;146.15;;;62.55;;
42006;SDS011;27696;42.704;23.304;2023-12-20T04:50:48;150.07;;;65.82;;
42006;SDS011;27696;42.704;23.304;2023-12-20T04:53:14;139.82;;;64.85;;
42006;SDS011;27696;42.704;23.304;2023-12-20T04:55:39;143.80;;;65.35;;
42006;SDS011;27696;42.704;23.304;2023-12-20T04:58:05;138.20;;;63.17;;
42006;SDS011;27696;42.704;23.304;2023-12-20T05:00:30;155.88;;;61.72;;
42006;SDS011;27696;42.704;23.304;2023-12-20T05:02:56;159.55;;;63.17;;
42006;SDS011;27696;42.704;23.304;2023-12-20T05:05:22;143.52;;;64.05;;
42006;SDS011;27696;42.704;23.304;2023-12-20T05:07:47;142.18;;;65.25;;
42006;SDS011;27696;42.704;23.304;2023-12-20T05:10:15;158.85;;;64.20;;
42006;SDS011;27696;42.704;23.304;2023-12-20T05:12:40;174.02;;;65.18;;
42006;SDS011;27696;42.704;23.304;2023-12-20T05:15:06;139.15;;;61.42;;
42006;SDS011;27696;42.704;23.304;2023-12-20T05:17:32;159.55;;;63.70;;
42006;SDS011;27696;42.704;23.304;2023-12-20T05:19:57;118.22;;;56.30;;
42006;SDS011;27696;42.704;23.304;2023-12-20T05:22:22;158.68;;;63.03;;
42006;SDS011;27696;42.704;23.304;2023-12-20T05:24:48;120.28;;;57.90;;
42006;SDS011;27696;42.704;23.304;2023-12-20T05:27:14;113.30;;;58.50;;
42006;SDS011;27696;42.704;23.304;2023-12-20T05:29:43;172.63;;;59.80;;
42006;SDS011;27696;42.704;23.304;2023-12-20T05:32:12;142.25;;;58.42;;
42006;SDS011;27696;42.704;23.304;2023-12-20T05:34:37;141.85;;;55.40;;
42006;SDS011;27696;42.704;23.304;2023-12-20T05:37:03;138.98;;;56.30;;
42006;SDS011;27696;42.704;23.304;2023-12-20T05:39:29;146.45;;;57.67;;
42006;SDS011;27696;42.704;23.304;2023-12-20T05:41:56;139.57;;;55.50;;
42006;SDS011;27696;42.704;23.304;2023-12-20T05:44:21;145.40;;;56.60;;
42006;SDS011;27696;42.704;23.304;2023-12-20T05:46:47;121.78;;;54.85;;
42006;SDS011;27696;42.704;23.304;2023-12-20T05:49:12;115.75;;;53.15;;
42006;SDS011;27696;42.704;23.304;2023-12-20T05:51:38;133.43;;;55.10;;
42006;SDS011;27696;42.704;23.304;2023-12-20T05:54:04;131.30;;;52.92;;
42006;SDS011;27696;42.704;23.304;2023-12-20T05:56:29;120.00;;;55.28;;
42006;SDS011;27696;42.704;23.304;2023-12-20T05:58:55;132.90;;;55.72;;
42006;SDS011;27696;42.704;23.304;2023-12-20T06:01:20;141.95;;;54.90;;
42006;SDS011;27696;42.704;23.304;2023-12-20T06:03:46;120.88;;;54.53;;
42006;SDS011;27696;42.704;23.304;2023-12-20T06:06:11;122.93;;;55.47;;
42006;SDS011;27696;42.704;23.304;2023-12-20T06:08:38;119.43;;;54.60;;
42006;SDS011;27696;42.704;23.304;2023-12-20T06:11:03;139.55;;;59.75;;
42006;SDS011;27696;42.704;23.304;2023-12-20T06:13:30;130.52;;;59.95;;
42006;SDS011;27696;42.704;23.304;2023-12-20T06:15:56;121.85;;;60.17;;
42006;SDS011;27696;42.704;23.304;2023-12-20T06:18:21;127.72;;;64.03;;
42006;SDS011;27696;42.704;23.304;2023-12-20T06:20:47;134.80;;;61.15;;
42006;SDS011;27696;42.704;23.304;2023-12-20T06:23:12;123.85;;;61.78;;
42006;SDS011;27696;42.704;23.304;2023-12-20T06:25:38;130.82;;;64.30;;
42006;SDS011;27696;42.704;23.304;2023-12-20T06:28:04;128.57;;;62.08;;
42006;SDS011;27696;42.704;23.304;2023-12-20T06:30:30;134.35;;;65.30;;
42006;SDS011;27696;42.704;23.304;2023-12-20T06:32:57;158.25;;;67.32;;
42006;SDS011;27696;42.704;23.304;2023-12-20T06:35:26;131.02;;;64.78;;
42006;SDS011;27696;42.704;23.304;2023-12-20T06:37:51;131.00;;;65.13;;
42006;SDS011;27696;42.704;23.304;2023-12-20T06:40:17;138.98;;;66.90;;
42006;SDS011;27696;42.704;23.304;2023-12-20T06:42:43;127.82;;;64.03;;
42006;SDS011;27696;42.704;23.304;2023-12-20T06:45:09;147.75;;;66.65;;
42006;SDS011;27696;42.704;23.304;2023-12-20T06:47:35;133.70;;;65.90;;
42006;SDS011;27696;42.704;23.304;2023-12-20T06:50:00;153.73;;;67.68;;
42006;SDS011;27696;42.704;23.304;2023-12-20T06:52:26;143.77;;;67.07;;
42006;SDS011;27696;42.704;23.304;2023-12-20T06:54:52;158.65;;;66.13;;
42006;SDS011;27696;42.704;23.304;2023-12-20T06:57:17;126.78;;;64.60;;
42006;SDS011;27696;42.704;23.304;2023-12-20T06:59:45;130.20;;;63.47;;
42006;SDS011;27696;42.704;23.304;2023-12-20T07:02:10;138.57;;;68.38;;
42006;SDS011;27696;42.704;23.304;2023-12-20T07:04:39;136.57;;;69.43;;
42006;SDS011;27696;42.704;23.304;2023-12-20T07:07:05;157.00;;;69.95;;
42006;SDS011;27696;42.704;23.304;2023-12-20T07:09:32;144.80;;;66.53;;
42006;SDS011;27696;42.704;23.304;2023-12-20T07:11:58;155.52;;;70.88;;
42006;SDS011;27696;42.704;23.304;2023-12-20T07:14:23;131.60;;;67.57;;
42006;SDS011;27696;42.704;23.304;2023-12-20T07:16:49;150.52;;;67.60;;
42006;SDS011;27696;42.704;23.304;2023-12-20T07:19:14;142.38;;;67.05;;
42006;SDS011;27696;42.704;23.304;2023-12-20T07:21:40;150.63;;;68.28;;
42006;SDS011;27696;42.704;23.304;2023-12-20T07:24:05;145.75;;;68.18;;
42006;SDS011;27696;42.704;23.304;2023-12-20T07:26:31;148.90;;;69.28;;
42006;SDS011;27696;42.704;23.304;2023-12-20T07:28:56;146.07;;;69.72;;
42006;SDS011;27696;42.704;23.304;2023-12-20T07:31:23;156.90;;;68.90;;
42006;SDS011;27696;42.704;23.304;2023-12-20T07:33:49;158.85;;;68.90;;
42006;SDS011;27696;42.704;23.304;2023-12-20T07:36:14;146.63;;;67.07;;
42006;SDS011;27696;42.704;23.304;2023-12-20T07:38:40;144.20;;;68.10;;
42006;SDS011;27696;42.704;23.304;2023-12-20T07:41:08;145.65;;;69.82;;
42006;SDS011;27696;42.704;23.304;2023-12-20T07:43:34;135.88;;;70.28;;
42006;SDS011;27696;42.704;23.304;2023-12-20T07:46:06;152.50;;;71.05;;
42006;SDS011;27696;42.704;23.304;2023-12-20T07:48:34;144.20;;;73.30;;
42006;SDS011;27696;42.704;23.304;2023-12-20T07:50:59;166.20;;;72.38;;
42006;SDS011;27696;42.704;23.304;2023-12-20T07:53:25;156.10;;;73.00;;
42006;SDS011;27696;42.704;23.304;2023-12-20T07:55:50;130.15;;;68.53;;
42006;SDS011;27696;42.704;23.304;2023-12-20T07:58:17;145.45;;;71.65;;
42006;SDS011;27696;42.704;23.304;2023-12-20T08:00:43;138.38;;;72.13;;
42006;SDS011;27696;42.704;23.304;2023-12-20T08:03:09;128.88;;;68.70;;
42006;SDS011;27696;42.704;23.304;2023-12-20T08:05:34;146.68;;;71.70;;
42006;SDS011;27696;42.704;23.304;2023-12-20T08:08:00;135.35;;;69.30;;
42006;SDS011;27696;42.704;23.304;2023-12-20T08:10:26;144.95;;;68.60;;
42006;SDS011;27696;42.704;23.304;2023-12-20T08:12:54;136.23;;;67.18;;
42006;SDS011;27696;42.704;23.304;2023-12-20T08:15:20;155.23;;;72.85;;
42006;SDS011;27696;42.704;23.304;2023-12-20T08:17:48;142.95;;;68.97;;
42006;SDS011;27696;42.704;23.304;2023-12-20T08:20:15;135.55;;;66.97;;
42006;SDS011;27696;42.704;23.304;2023-12-20T08:22:42;130.07;;;67.85;;
42006;SDS011;27696;42.704;23.304;2023-12-20T08:25:07;149.80;;;68.65;;
42006;SDS011;27696;42.704;23.304;2023-12-20T08:27:39;137.52;;;65.03;;
42006;SDS011;27696;42.704;23.304;2023-12-20T08:30:05;143.80;;;69.75;;
42006;SDS011;27696;42.704;23.304;2023-12-20T08:32:34;141.32;;;67.85;;
42006;SDS011;27696;42.704;23.304;2023-12-20T08:35:00;130.38;;;66.82;;
42006;SDS011;27696;42.704;23.304;2023-12-20T08:37:26;131.68;;;67.13;;
42006;SDS011;27696;42.704;23.304;2023-12-20T08:42:37;127.15;;;64.93;;
42006;SDS011;27696;42.704;23.304;2023-12-20T08:45:02;129.85;;;65.97;;
42006;SDS011;27696;42.704;23.304;2023-12-20T08:47:29;129.55;;;64.63;;
42006;SDS011;27696;42.704;23.304;2023-12-20T08:49:55;130.13;;;65.10;;
42006;SDS011;27696;42.704;23.304;2023-12-20T08:52:23;135.00;;;67.50;;
42006;SDS011;27696;42.704;23.304;2023-12-20T08:54:49;135.30;;;68.32;;
42006;SDS011;27696;42.704;23.304;2023-12-20T08:57:17;164.07;;;80.75;;
42006;SDS011;27696;42.704;23.304;2023-12-20T08:59:44;174.63;;;80.22;;
42006;SDS011;27696;42.704;23.304;2023-12-20T09:02:10;166.27;;;77.88;;
42006;SDS011;27696;42.704;23.304;2023-12-20T09:04:35;164.70;;;77.95;;
42006;SDS011;27696;42.704;23.304;2023-12-20T09:07:01;165.55;;;80.97;;
42006;SDS011;27696;42.704;23.304;2023-12-20T09:09:26;165.70;;;78.03;;
42006;SDS011;27696;42.704;23.304;2023-12-20T09:11:52;168.02;;;81.35;;
42006;SDS011;27696;42.704;23.304;2023-12-20T09:14:19;179.73;;;84.93;;
42006;SDS011;27696;42.704;23.304;2023-12-20T09:16:44;163.20;;;82.55;;
42006;SDS011;27696;42.704;23.304;2023-12-20T09:19:12;169.20;;;84.45;;
42006;SDS011;27696;42.704;23.304;2023-12-20T09:21:38;169.85;;;84.78;;
42006;SDS011;27696;42.704;23.304;2023-12-20T09:24:03;170.75;;;87.00;;
42006;SDS011;27696;42.704;23.304;2023-12-20T09:26:29;178.07;;;87.80;;
42006;SDS011;27696;42.704;23.304;2023-12-20T09:28:55;179.90;;;91.20;;
42006;SDS011;27696;42.704;23.304;2023-12-20T09:31:20;167.23;;;86.60;;
42006;SDS011;27696;42.704;23.304;2023-12-20T09:33:46;189.43;;;88.88;;
42006;SDS011;27696;42.704;23.304;2023-12-20T09:36:11;189.40;;;89.53;;
42006;SDS011;27696;42.704;23.304;2023-12-20T09:38:37;189.55;;;90.45;;
42006;SDS011;27696;42.704;23.304;2023-12-20T09:41:02;181.90;;;91.82;;
42006;SDS011;27696;42.704;23.304;2023-12-20T09:43:29;188.85;;;93.90;;
42006;SDS011;27696;42.704;23.304;2023-12-20T09:45:55;200.85;;;96.18;;
42006;SDS011;27696;42.704;23.304;2023-12-20T09:48:27;198.85;;;100.10;;
42006;SDS011;27696;42.704;23.304;2023-12-20T09:50:53;191.98;;;98.68;;
42006;SDS011;27696;42.704;23.304;2023-12-20T09:53:18;200.85;;;97.00;;
42006;SDS011;27696;42.704;23.304;2023-12-20T09:55:44;194.48;;;101.00;;
42006;SDS011;27696;42.704;23.304;2023-12-20T09:58:10;194.68;;;98.70;;
42006;SDS011;27696;42.704;23.304;2023-12-20T10:00:35;208.98;;;101.65;;
42006;SDS011;27696;42.704;23.304;2023-12-20T10:03:01;207.45;;;104.22;;
42006;SDS011;27696;42.704;23.304;2023-12-20T10:05:29;207.32;;;103.13;;
42006;SDS011;27696;42.704;23.304;2023-12-20T10:07:55;210.25;;;104.20;;
42006;SDS011;27696;42.704;23.304;2023-12-20T10:13:10;216.90;;;106.05;;
42006;SDS011;27696;42.704;23.304;2023-12-20T10:15:36;201.68;;;105.82;;
42006;SDS011;27696;42.704;23.304;2023-12-20T10:18:03;208.55;;;106.28;;
42006;SDS011;27696;42.704;23.304;2023-12-20T10:20:29;225.90;;;110.45;;
42006;SDS011;27696;42.704;23.304;2023-12-20T10:22:56;219.15;;;106.38;;
42006;SDS011;27696;42.704;23.304;2023-12-20T10:25:22;228.07;;;111.20;;
42006;SDS011;27696;42.704;23.304;2023-12-20T10:27:47;219.75;;;111.82;;
42006;SDS011;27696;42.704;23.304;2023-12-20T10:30:14;225.27;;;111.18;;
42006;SDS011;27696;42.704;23.304;2023-12-20T10:32:40;215.32;;;108.70;;
42006;SDS011;27696;42.704;23.304;2023-12-20T10:35:05;208.70;;;108.50;;
42006;SDS011;27696;42.704;23.304;2023-12-20T10:37:32;212.18;;;108.53;;
42006;SDS011;27696;42.704;23.304;2023-12-20T10:40:00;215.98;;;108.20;;
42006;SDS011;27696;42.704;23.304;2023-12-20T10:42:28;207.45;;;107.72;;
42006;SDS011;27696;42.704;23.304;2023-12-20T10:44:54;212.48;;;107.80;;
42006;SDS011;27696;42.704;23.304;2023-12-20T10:47:20;204.23;;;106.78;;
42006;SDS011;27696;42.704;23.304;2023-12-20T10:49:46;211.60;;;108.07;;
42006;SDS011;27696;42.704;23.304;2023-12-20T10:52:12;203.15;;;107.25;;
42006;SDS011;27696;42.704;23.304;2023-12-20T10:54:41;210.05;;;110.10;;
42006;SDS011;27696;42.704;23.304;2023-12-20T10:57:06;212.90;;;111.35;;
42006;SDS011;27696;42.704;23.304;2023-12-20T10:59:33;213.00;;;109.25;;
42006;SDS011;27696;42.704;23.304;2023-12-20T11:01:59;204.32;;;114.18;;
42006;SDS011;27696;42.704;23.304;2023-12-20T11:04:36;216.25;;;113.30;;
42006;SDS011;27696;42.704;23.304;2023-12-20T11:07:52;218.65;;;114.22;;
42006;SDS011;27696;42.704;23.304;2023-12-20T11:10:10;226.02;;;122.53;;
42006;SDS011;27696;42.704;23.304;2023-12-20T11:12:55;214.40;;;117.35;;
42006;SDS011;27696;42.704;23.304;2023-12-20T11:15:24;215.98;;;114.30;;
42006;SDS011;27696;42.704;23.304;2023-12-20T11:17:56;212.52;;;120.05;;
42006;SDS011;27696;42.704;23.304;2023-12-20T11:20:23;222.45;;;121.43;;
42006;SDS011;27696;42.704;23.304;2023-12-20T11:22:52;228.05;;;125.15;;
42006;SDS011;27696;42.704;23.304;2023-12-20T11:25:18;217.32;;;118.38;;
42006;SDS011;27696;42.704;23.304;2023-12-20T11:27:44;214.82;;;119.57;;
42006;SDS011;27696;42.704;23.304;2023-12-20T11:30:43;217.07;;;116.00;;
42006;SDS011;27696;42.704;23.304;2023-12-20T11:33:12;210.57;;;113.65;;
42006;SDS011;27696;42.704;23.304;2023-12-20T11:35:39;200.55;;;112.43;;
42006;SDS011;27696;42.704;23.304;2023-12-20T11:38:07;198.57;;;109.22;;
42006;SDS011;27696;42.704;23.304;2023-12-20T11:40:33;215.30;;;111.45;;
42006;SDS011;27696;42.704;23.304;2023-12-20T11:42:59;201.50;;;107.95;;
42006;SDS011;27696;42.704;23.304;2023-12-20T11:45:25;199.23;;;105.05;;
42006;SDS011;27696;42.704;23.304;2023-12-20T11:47:51;213.20;;;107.05;;
42006;SDS011;27696;42.704;23.304;2023-12-20T11:50:18;203.82;;;107.57;;
42006;SDS011;27696;42.704;23.304;2023-12-20T11:52:45;202.80;;;103.38;;
42006;SDS011;27696;42.704;23.304;2023-12-20T11:55:10;195.65;;;102.00;;
42006;SDS011;27696;42.704;23.304;2023-12-20T11:57:36;187.75;;;102.75;;
42006;SDS011;27696;42.704;23.304;2023-12-20T12:00:02;183.57;;;98.22;;
42006;SDS011;27696;42.704;23.304;2023-12-20T12:02:29;188.60;;;98.85;;
42006;SDS011;27696;42.704;23.304;2023-12-20T12:04:55;177.32;;;95.43;;
42006;SDS011;27696;42.704;23.304;2023-12-20T12:07:21;175.93;;;89.85;;
42006;SDS011;27696;42.704;23.304;2023-12-20T12:09:47;169.57;;;90.00;;
42006;SDS011;27696;42.704;23.304;2023-12-20T12:12:13;170.90;;;86.70;;
42006;SDS011;27696;42.704;23.304;2023-12-20T12:14:39;164.55;;;90.60;;
42006;SDS011;27696;42.704;23.304;2023-12-20T12:17:14;174.05;;;89.15;;
42006;SDS011;27696;42.704;23.304;2023-12-20T12:22:07;162.00;;;85.68;;
42006;SDS011;27696;42.704;23.304;2023-12-20T12:24:36;159.40;;;86.35;;
42006;SDS011;27696;42.704;23.304;2023-12-20T12:27:02;164.38;;;87.10;;
42006;SDS011;27696;42.704;23.304;2023-12-20T12:29:28;159.60;;;88.38;;
42006;SDS011;27696;42.704;23.304;2023-12-20T12:31:54;173.63;;;91.28;;
42006;SDS011;27696;42.704;23.304;2023-12-20T12:34:20;166.82;;;87.35;;
42006;SDS011;27696;42.704;23.304;2023-12-20T12:36:45;165.25;;;88.47;;
42006;SDS011;27696;42.704;23.304;2023-12-20T12:39:14;173.13;;;93.38;;
42006;SDS011;27696;42.704;23.304;2023-12-20T12:41:40;168.23;;;91.78;;
42006;SDS011;27696;42.704;23.304;2023-12-20T12:44:06;163.05;;;90.63;;
42006;SDS011;27696;42.704;23.304;2023-12-20T12:46:31;164.88;;;87.07;;
42006;SDS011;27696;42.704;23.304;2023-12-20T12:48:58;171.50;;;88.28;;
42006;SDS011;27696;42.704;23.304;2023-12-20T12:51:23;169.75;;;87.93;;
42006;SDS011;27696;42.704;23.304;2023-12-20T12:53:49;167.00;;;85.35;;
42006;SDS011;27696;42.704;23.304;2023-12-20T12:56:15;167.43;;;87.63;;
42006;SDS011;27696;42.704;23.304;2023-12-20T12:58:40;163.63;;;86.88;;
42006;SDS011;27696;42.704;23.304;2023-12-20T13:01:06;165.95;;;87.55;;
42006;SDS011;27696;42.704;23.304;2023-12-20T13:03:32;166.30;;;84.72;;
42006;SDS011;27696;42.704;23.304;2023-12-20T13:05:57;161.25;;;85.15;;
42006;SDS011;27696;42.704;23.304;2023-12-20T13:08:23;162.85;;;82.15;;
42006;SDS011;27696;42.704;23.304;2023-12-20T13:10:49;148.05;;;81.47;;
42006;SDS011;27696;42.704;23.304;2023-12-20T13:13:14;156.27;;;84.57;;
42006;SDS011;27696;42.704;23.304;2023-12-20T13:15:40;157.02;;;83.60;;
42006;SDS011;27696;42.704;23.304;2023-12-20T13:18:05;159.95;;;82.47;;
42006;SDS011;27696;42.704;23.304;2023-12-20T13:20:31;148.35;;;81.75;;
42006;SDS011;27696;42.704;23.304;2023-12-20T13:22:58;154.73;;;82.53;;
42006;SDS011;27696;42.704;23.304;2023-12-20T13:25:23;152.02;;;80.35;;
42006;SDS011;27696;42.704;23.304;2023-12-20T13:27:49;156.25;;;84.22;;
42006;SDS011;27696;42.704;23.304;2023-12-20T13:30:16;154.93;;;84.95;;
42006;SDS011;27696;42.704;23.304;2023-12-20T13:32:42;155.55;;;82.93;;
42006;SDS011;27696;42.704;23.304;2023-12-20T13:35:07;161.70;;;82.57;;
42006;SDS011;27696;42.704;23.304;2023-12-20T13:37:33;156.45;;;84.03;;
42006;SDS011;27696;42.704;23.304;2023-12-20T13:39:59;164.77;;;82.80;;
42006;SDS011;27696;42.704;23.304;2023-12-20T13:42:25;159.45;;;86.15;;
42006;SDS011;27696;42.704;23.304;2023-12-20T13:44:52;166.23;;;83.80;;
42006;SDS011;27696;42.704;23.304;2023-12-20T13:47:18;167.13;;;84.20;;
42006;SDS011;27696;42.704;23.304;2023-12-20T13:49:44;169.35;;;84.25;;
42006;SDS011;27696;42.704;23.304;2023-12-20T13:52:10;167.70;;;83.82;;
42006;SDS011;27696;42.704;23.304;2023-12-20T13:54:36;172.48;;;84.20;;
42006;SDS011;27696;42.704;23.304;2023-12-20T13:57:01;169.35;;;81.07;;
42006;SDS011;27696;42.704;23.304;2023-12-20T13:59:28;169.68;;;83.03;;